Observations for BOLOGNA BORGO AFB, Italy (LIPE)

LIPE 200620Z 20007KT CAVOK 11/05 Q1028  
LIPE 200550Z 20008KT CAVOK 09/05 Q1027  
LIPE 200520Z 20008KT CAVOK 08/04 Q1027  
LIPE 200450Z 21007KT 180V250 CAVOK 08/04 Q1027  
LIPE 200420Z 20008KT CAVOK 08/04 Q1027  
LIPE 200350Z 20007KT CAVOK 08/04 Q1027  
LIPE 200250Z 20007KT CAVOK 08/05 Q1027  
LIPE 200220Z 21007KT CAVOK 08/05 Q1027  
LIPE 200150Z 21007KT CAVOK 09/05 Q1027  
LIPE 200120Z 21007KT CAVOK 09/05 Q1027  
LIPE 200050Z 20005KT CAVOK 09/05 Q1027  
LIPE 200020Z 20003KT CAVOK 09/05 Q1028  
LIPE 192350Z 21004KT 180V240 CAVOK 10/05 Q1028  
LIPE 192320Z VRB02KT CAVOK 10/05 Q1028  
LIPE 192250Z 21006KT CAVOK 11/05 Q1028  
LIPE 192220Z 22005KT CAVOK 11/06 Q1028  
LIPE 192150Z 21004KT 170V240 CAVOK 11/06 Q1028  
LIPE 192120Z 21003KT CAVOK 12/05 Q1028  
LIPE 192050Z 21004KT CAVOK 12/05 Q1028  
LIPE 192020Z VRB01KT CAVOK 12/05 Q1028  
LIPE 191950Z 11004KT CAVOK 14/05 Q1028  
LIPE 191920Z 10004KT CAVOK 14/05 Q1028  
LIPE 191850Z 09005KT CAVOK 16/05 Q1027  
LIPE 191820Z 10005KT CAVOK 15/05 Q1027  
LIPE 191750Z 09005KT CAVOK 18/05 Q1027  
LIPE 191720Z 07004KT 040V110 CAVOK 19/05 Q1027  
LIPE 191650Z 09004KT 050V140 CAVOK 20/05 Q1027  
LIPE 191620Z 03003KT 320V120 CAVOK 20/04 Q1027  
LIPE 191550Z 10006KT 9999 FEW060 20/05 Q1027
LIPE 191520Z 03004KT 330V080 9999 FEW060 21/05 Q1027
LIPE 191450Z 08004KT 020V120 9999 FEW060 21/07 Q1027
LIPE 191420Z 04004KT 340V120 9999 SCT060 20/05 Q1028
LIPE 191350Z 12006KT 9999 SCT060 20/07 Q1028
LIPE 191320Z 13003KT 060V200 9999 SCT050 20/06 Q1028
LIPE 191250Z 07004KT 360V120 9999 SCT050 20/06 Q1029
LIPE 191220Z 07006KT 020V130 9999 SCT045 20/08 Q1029
LIPE 191150Z 07006KT 020V120 9999 SCT045 19/07 Q1029
LIPE 191120Z VRB04KT 9999 SCT040 19/08 Q1029
LIPE 191050Z VRB05KT 9999 FEW040 19/08 Q1029
LIPE 191020Z VRB04KT 9999 FEW030 18/07 Q1030
LIPE 190950Z 33004KT 270V040 CAVOK 17/08 Q1030  
LIPE 190920Z 33004KT 270V020 CAVOK 17/08 Q1030  
LIPE 190850Z VRB03KT CAVOK 16/08 Q1030  
LIPE 190820Z 33004KT 250V360 CAVOK 15/08 Q1030  
LIPE 190750Z 29004KT 270V350 CAVOK 14/07 Q1030  
LIPE 190720Z 29005KT 250V310 CAVOK 13/06 Q1030  
LIPE 190650Z 21003KT CAVOK 12/06 Q1029  
LIPE 190620Z 22005KT CAVOK 10/05 Q1029  
LIPE 190550Z 22004KT CAVOK 09/05 Q1029